Time;durP1;ratioP1;P1;durP2;ratioP2;P2;SDS_P1;SDS_P2;PMS_P1;PMS_P2;Temp;Humidity;BMP_temperature;BMP_pressure;BME280_temperature;BME280_humidity;BME280_pressure;Samples;Min_cycle;Max_cycle;Signal;HPM_P1;HPM_P2
2023/03/03 00:02:20;;;;;;;74.10;11.85;;;;;;;;;;5050157;28;20060;-38
2023/03/03 00:04:47;;;;;;;75.78;10.55;;;;;;;;;;5034928;28;20132;-40
2023/03/03 00:07:20;;;;;;;78.35;10.98;;;;;;;;;;5030564;28;20067;-40
2023/03/03 00:09:47;;;;;;;86.90;12.35;;;;;;;;;;5038536;28;20091;-39
2023/03/03 00:12:23;;;;;;;98.05;15.20;;;;;;;;;;5043462;28;20843;-41
2023/03/03 00:14:50;;;;;;;98.68;13.50;;;;;;;;;;5032666;28;20037;-44
2023/03/03 00:17:24;;;;;;;98.20;14.35;;;;;;;;;;5033046;28;20054;-42
2023/03/03 00:19:51;;;;;;;119.15;18.70;;;;;;;;;;5048117;28;20045;-40
2023/03/03 00:22:39;;;;;;;108.35;16.30;;;;;;;;;;5051844;28;20032;-43
2023/03/03 00:25:26;;;;;;;112.57;17.80;;;;;;;;;;5051955;28;20402;-42
2023/03/03 00:27:53;;;;;;;127.55;17.70;;;;;;;;;;5052352;28;20056;-42
2023/03/03 00:30:26;;;;;;;134.70;21.75;;;;;;;;;;5034953;28;20762;-42
2023/03/03 00:32:54;;;;;;;113.20;18.73;;;;;;;;;;5052475;28;20036;-42
2023/03/03 00:35:35;;;;;;;108.03;18.52;;;;;;;;;;5052338;28;20512;-39
2023/03/03 00:38:11;;;;;;;139.65;23.25;;;;;;;;;;5047801;28;20522;-40
2023/03/03 00:40:39;;;;;;;171.80;26.77;;;;;;;;;;5051568;28;20037;-40
2023/03/03 00:43:15;;;;;;;234.02;46.92;;;;;;;;;;5049075;28;20036;-42
2023/03/03 00:45:42;;;;;;;215.38;45.63;;;;;;;;;;5049413;28;20051;-39
2023/03/03 00:48:17;;;;;;;205.70;45.50;;;;;;;;;;5052336;28;20100;-42
2023/03/03 00:50:44;;;;;;;224.90;44.55;;;;;;;;;;5052500;28;20488;-39
2023/03/03 00:53:13;;;;;;;206.32;42.42;;;;;;;;;;5052397;28;20029;-40
2023/03/03 00:55:40;;;;;;;186.45;39.60;;;;;;;;;;5052102;28;20066;-40
2023/03/03 00:58:07;;;;;;;204.88;41.05;;;;;;;;;;5050902;28;20098;-42
2023/03/03 01:00:35;;;;;;;201.07;40.05;;;;;;;;;;5051826;28;20378;-41
2023/03/03 01:03:06;;;;;;;182.43;39.80;;;;;;;;;;5052002;28;20108;-41
2023/03/03 01:05:33;;;;;;;167.80;37.33;;;;;;;;;;5051886;28;20031;-42
2023/03/03 01:08:01;;;;;;;183.23;36.85;;;;;;;;;;5050676;28;20163;-40
2023/03/03 01:10:28;;;;;;;173.88;34.85;;;;;;;;;;5050857;28;20029;-38
2023/03/03 01:12:56;;;;;;;160.75;37.65;;;;;;;;;;5048693;28;20028;-37
2023/03/03 01:15:23;;;;;;;173.13;36.20;;;;;;;;;;5032108;28;20550;-38
2023/03/03 01:17:50;;;;;;;151.75;33.80;;;;;;;;;;5032066;28;20025;-41
2023/03/03 01:20:18;;;;;;;162.35;34.65;;;;;;;;;;5031994;28;20065;-40
2023/03/03 01:22:45;;;;;;;151.85;33.15;;;;;;;;;;5031664;28;20036;-40
2023/03/03 01:25:12;;;;;;;153.07;34.63;;;;;;;;;;5031747;28;20080;-41
2023/03/03 01:27:39;;;;;;;146.68;34.20;;;;;;;;;;5031996;28;20029;-41
2023/03/03 01:30:06;;;;;;;155.45;32.80;;;;;;;;;;5039297;28;20118;-39
2023/03/03 01:32:33;;;;;;;169.10;33.03;;;;;;;;;;5047588;28;20031;-42
2023/03/03 01:35:00;;;;;;;149.60;31.55;;;;;;;;;;5047586;28;20028;-42
2023/03/03 01:37:27;;;;;;;158.98;33.13;;;;;;;;;;5051584;28;20799;-39
2023/03/03 01:39:55;;;;;;;155.88;33.05;;;;;;;;;;5039188;28;20118;-41
2023/03/03 01:42:22;;;;;;;144.35;32.58;;;;;;;;;;5036338;28;20040;-40
2023/03/03 01:44:49;;;;;;;142.02;31.75;;;;;;;;;;5037744;28;20052;-39
2023/03/03 01:47:21;;;;;;;149.52;31.55;;;;;;;;;;5044513;28;20031;-40
2023/03/03 01:49:48;;;;;;;135.55;30.13;;;;;;;;;;5042633;28;20483;-46
2023/03/03 01:52:23;;;;;;;152.38;32.50;;;;;;;;;;5046432;28;20033;-50
2023/03/03 01:54:53;;;;;;;155.55;33.20;;;;;;;;;;5027646;28;20029;-41
2023/03/03 01:57:28;;;;;;;140.82;31.42;;;;;;;;;;5045858;28;20478;-43
2023/03/03 01:59:56;;;;;;;144.13;33.05;;;;;;;;;;5033118;28;20045;-41
2023/03/03 02:02:24;;;;;;;128.43;29.98;;;;;;;;;;5044736;28;20032;-40
2023/03/03 02:04:50;;;;;;;149.40;31.60;;;;;;;;;;5049702;28;20033;-43
2023/03/03 02:07:19;;;;;;;137.60;30.63;;;;;;;;;;5047281;28;20159;-42
2023/03/03 02:09:58;;;;;;;153.38;34.17;;;;;;;;;;5048787;28;20036;-41
2023/03/03 02:12:45;;;;;;;141.52;32.78;;;;;;;;;;5049776;28;20518;-41
2023/03/03 02:15:16;;;;;;;143.75;32.03;;;;;;;;;;5046352;28;20503;-40
2023/03/03 02:17:44;;;;;;;146.67;32.40;;;;;;;;;;5050007;28;20036;-42
2023/03/03 02:20:18;;;;;;;151.70;32.08;;;;;;;;;;5050217;28;20128;-42
2023/03/03 02:22:53;;;;;;;139.48;32.85;;;;;;;;;;5049746;28;20392;-40
2023/03/03 02:25:30;;;;;;;152.95;33.22;;;;;;;;;;5050248;28;20107;-41
2023/03/03 02:27:57;;;;;;;135.63;32.60;;;;;;;;;;5050118;28;20134;-40
2023/03/03 02:30:24;;;;;;;130.77;32.17;;;;;;;;;;5050255;28;20033;-41
2023/03/03 02:32:51;;;;;;;148.02;32.42;;;;;;;;;;5050741;28;20071;-40
2023/03/03 02:35:29;;;;;;;154.77;33.17;;;;;;;;;;5050667;28;20376;-41
2023/03/03 02:37:58;;;;;;;141.02;32.10;;;;;;;;;;5050750;28;20394;-40
2023/03/03 02:40:27;;;;;;;141.55;32.67;;;;;;;;;;5050787;28;20033;-40
2023/03/03 02:42:56;;;;;;;118.78;31.17;;;;;;;;;;5050593;28;20054;-41
2023/03/03 02:45:23;;;;;;;151.45;31.48;;;;;;;;;;5050578;28;20803;-40
2023/03/03 02:47:50;;;;;;;130.45;31.38;;;;;;;;;;5050770;28;20029;-41
2023/03/03 02:50:17;;;;;;;134.93;30.83;;;;;;;;;;5050729;28;20028;-41
2023/03/03 02:52:44;;;;;;;148.98;32.72;;;;;;;;;;5050529;28;20445;-40
2023/03/03 02:55:11;;;;;;;138.05;31.83;;;;;;;;;;5050543;28;20033;-40
2023/03/03 02:57:38;;;;;;;120.50;31.92;;;;;;;;;;5032928;28;20119;-40
2023/03/03 03:00:06;;;;;;;129.98;31.00;;;;;;;;;;5050471;28;20604;-40
2023/03/03 03:02:33;;;;;;;133.75;31.73;;;;;;;;;;5050613;28;20033;-40
2023/03/03 03:05:00;;;;;;;129.50;32.67;;;;;;;;;;5050532;28;20155;-40
2023/03/03 03:07:27;;;;;;;138.50;30.90;;;;;;;;;;5050505;28;20040;-40
2023/03/03 03:09:54;;;;;;;133.27;30.13;;;;;;;;;;5050441;28;20047;-40
2023/03/03 03:12:21;;;;;;;122.72;31.05;;;;;;;;;;5050505;28;20029;-40
2023/03/03 03:14:48;;;;;;;137.90;31.35;;;;;;;;;;5050450;28;20118;-40
2023/03/03 03:17:15;;;;;;;122.00;31.30;;;;;;;;;;5050483;28;20024;-41
2023/03/03 03:19:42;;;;;;;128.57;30.73;;;;;;;;;;5050678;28;20052;-41
2023/03/03 03:22:09;;;;;;;136.63;30.55;;;;;;;;;;5054181;28;20817;-40
2023/03/03 03:24:36;;;;;;;122.25;29.52;;;;;;;;;;5054039;28;20453;-40
2023/03/03 03:27:03;;;;;;;134.70;30.67;;;;;;;;;;5054064;28;20120;-40
2023/03/03 03:29:30;;;;;;;139.48;30.70;;;;;;;;;;5054060;28;20402;-40
2023/03/03 03:31:57;;;;;;;114.43;29.13;;;;;;;;;;5053914;28;20041;-40
2023/03/03 03:34:24;;;;;;;142.80;31.85;;;;;;;;;;5054073;28;20106;-40
2023/03/03 03:36:51;;;;;;;140.93;31.48;;;;;;;;;;5054012;28;20025;-40
2023/03/03 03:39:19;;;;;;;140.00;32.50;;;;;;;;;;5053641;28;20510;-40
2023/03/03 03:41:46;;;;;;;135.13;30.65;;;;;;;;;;5053698;28;20040;-40
2023/03/03 03:44:13;;;;;;;130.75;30.80;;;;;;;;;;5053785;28;20105;-41
2023/03/03 03:46:40;;;;;;;120.97;30.70;;;;;;;;;;5053840;28;20549;-40
2023/03/03 03:49:07;;;;;;;122.15;31.77;;;;;;;;;;5053700;28;20025;-40
2023/03/03 03:51:37;;;;;;;119.38;29.95;;;;;;;;;;5053639;28;20100;-40
2023/03/03 03:54:04;;;;;;;120.07;30.17;;;;;;;;;;5053374;28;20029;-41
2023/03/03 03:56:30;;;;;;;136.25;31.45;;;;;;;;;;5053487;28;20052;-40
2023/03/03 03:58:57;;;;;;;127.78;30.48;;;;;;;;;;5053462;28;20032;-40
2023/03/03 04:01:25;;;;;;;121.35;29.23;;;;;;;;;;5053471;28;20482;-40
2023/03/03 04:03:52;;;;;;;118.20;30.83;;;;;;;;;;5053188;28;20025;-41
2023/03/03 04:06:19;;;;;;;121.20;30.33;;;;;;;;;;5053434;28;20041;-40
2023/03/03 04:08:46;;;;;;;108.70;29.45;;;;;;;;;;5053353;28;20029;-40
2023/03/03 04:11:13;;;;;;;116.47;29.08;;;;;;;;;;5053348;28;20032;-39
2023/03/03 04:13:40;;;;;;;121.45;28.95;;;;;;;;;;5053169;28;20086;-40
2023/03/03 04:16:07;;;;;;;122.60;30.45;;;;;;;;;;5053107;28;20099;-40
2023/03/03 04:18:34;;;;;;;118.97;29.60;;;;;;;;;;5053095;28;20090;-40
2023/03/03 04:21:01;;;;;;;121.82;29.13;;;;;;;;;;5053093;28;20037;-40
2023/03/03 04:23:28;;;;;;;123.15;29.67;;;;;;;;;;5053060;28;20119;-40
2023/03/03 04:25:54;;;;;;;124.90;28.98;;;;;;;;;;5034806;28;20045;-40
2023/03/03 04:28:24;;;;;;;119.65;28.27;;;;;;;;;;5052926;28;20036;-40
2023/03/03 04:30:50;;;;;;;111.60;29.98;;;;;;;;;;5052536;28;20041;-41
2023/03/03 04:33:17;;;;;;;115.25;28.63;;;;;;;;;;5052639;28;20032;-40
2023/03/03 04:35:45;;;;;;;105.00;28.90;;;;;;;;;;5052844;28;20021;-40
2023/03/03 04:38:12;;;;;;;116.75;28.60;;;;;;;;;;5052791;28;20036;-40
2023/03/03 04:40:42;;;;;;;110.70;27.92;;;;;;;;;;5052607;28;20406;-40
2023/03/03 04:43:10;;;;;;;119.70;27.65;;;;;;;;;;5052592;28;20033;-41
2023/03/03 04:45:37;;;;;;;113.72;27.15;;;;;;;;;;5052732;28;20104;-40
2023/03/03 04:48:04;;;;;;;115.03;26.83;;;;;;;;;;5034626;28;20060;-40
2023/03/03 04:50:31;;;;;;;98.65;27.80;;;;;;;;;;5052601;28;20037;-40
2023/03/03 04:52:58;;;;;;;122.38;27.08;;;;;;;;;;5052498;28;20036;-41
2023/03/03 04:55:25;;;;;;;123.40;29.02;;;;;;;;;;5052463;28;20482;-40
2023/03/03 04:57:52;;;;;;;111.18;28.27;;;;;;;;;;5052467;28;20032;-40
2023/03/03 05:00:19;;;;;;;109.03;27.13;;;;;;;;;;5052336;28;20060;-40
2023/03/03 05:02:47;;;;;;;109.40;26.50;;;;;;;;;;5052316;28;20024;-41
2023/03/03 05:05:14;;;;;;;110.07;27.02;;;;;;;;;;5034384;28;20049;-40
2023/03/03 05:07:41;;;;;;;104.30;26.20;;;;;;;;;;5052244;28;20027;-40
2023/03/03 05:10:09;;;;;;;102.60;26.42;;;;;;;;;;5052196;28;20059;-40
2023/03/03 05:12:36;;;;;;;115.10;26.58;;;;;;;;;;5052086;28;20033;-40
2023/03/03 05:15:03;;;;;;;104.13;26.00;;;;;;;;;;5052138;28;20491;-40
2023/03/03 05:17:30;;;;;;;103.95;25.98;;;;;;;;;;5052088;28;20025;-41
2023/03/03 05:19:57;;;;;;;105.28;26.88;;;;;;;;;;5051908;28;20037;-40
2023/03/03 05:22:24;;;;;;;106.22;25.52;;;;;;;;;;5051858;28;20506;-40
2023/03/03 05:24:52;;;;;;;104.57;26.15;;;;;;;;;;5051803;28;20057;-40
2023/03/03 05:27:19;;;;;;;119.18;26.30;;;;;;;;;;5051792;28;20075;-40
2023/03/03 05:29:46;;;;;;;100.90;26.65;;;;;;;;;;5051724;28;20120;-41
2023/03/03 05:32:13;;;;;;;99.65;25.65;;;;;;;;;;5050918;28;20086;-40
2023/03/03 05:34:40;;;;;;;109.97;25.17;;;;;;;;;;5051040;28;20080;-40
2023/03/03 05:37:07;;;;;;;100.80;23.58;;;;;;;;;;5050920;28;20458;-41
2023/03/03 05:39:35;;;;;;;98.53;25.27;;;;;;;;;;5050993;28;20063;-40
2023/03/03 05:42:02;;;;;;;93.00;24.17;;;;;;;;;;5050835;28;20079;-40
2023/03/03 05:44:29;;;;;;;106.70;24.65;;;;;;;;;;5051007;28;20026;-41
2023/03/03 05:46:57;;;;;;;104.50;24.25;;;;;;;;;;5051557;28;20029;-40
2023/03/03 05:49:25;;;;;;;103.57;24.10;;;;;;;;;;5051379;28;20041;-40
2023/03/03 05:51:52;;;;;;;89.95;23.77;;;;;;;;;;5051413;28;20036;-41
2023/03/03 05:54:19;;;;;;;91.00;24.60;;;;;;;;;;5051431;28;20562;-40
2023/03/03 05:56:46;;;;;;;104.82;23.67;;;;;;;;;;5051263;28;20032;-40
2023/03/03 05:59:13;;;;;;;92.22;22.88;;;;;;;;;;5051253;28;20037;-40
2023/03/03 06:01:40;;;;;;;92.43;22.02;;;;;;;;;;5049988;28;20033;-43
2023/03/03 06:04:07;;;;;;;95.03;22.67;;;;;;;;;;5051218;28;20062;-42
2023/03/03 06:06:34;;;;;;;81.88;22.40;;;;;;;;;;5051200;28;20033;-42
2023/03/03 06:09:01;;;;;;;85.18;22.83;;;;;;;;;;5051118;28;20017;-42
2023/03/03 06:11:28;;;;;;;88.85;21.05;;;;;;;;;;5050955;28;20029;-43
2023/03/03 06:13:55;;;;;;;73.78;21.08;;;;;;;;;;5050879;28;20465;-42
2023/03/03 06:16:22;;;;;;;78.13;20.77;;;;;;;;;;5051059;28;20120;-42
2023/03/03 06:18:49;;;;;;;91.22;20.88;;;;;;;;;;5051052;28;20047;-42
2023/03/03 06:21:16;;;;;;;76.88;22.17;;;;;;;;;;5050880;28;20033;-42
2023/03/03 06:23:43;;;;;;;71.88;21.00;;;;;;;;;;5050839;28;20043;-39
2023/03/03 06:26:10;;;;;;;81.80;19.55;;;;;;;;;;5050786;28;20609;-40
2023/03/03 06:28:37;;;;;;;75.90;18.75;;;;;;;;;;5051006;28;20032;-41
2023/03/03 06:31:04;;;;;;;83.60;20.48;;;;;;;;;;5032989;28;20091;-40
2023/03/03 06:33:31;;;;;;;78.20;19.27;;;;;;;;;;5050759;28;20107;-40
2023/03/03 06:35:58;;;;;;;71.88;18.95;;;;;;;;;;5050955;28;20151;-40
2023/03/03 06:38:25;;;;;;;71.03;18.35;;;;;;;;;;5050744;28;20037;-40
2023/03/03 06:40:52;;;;;;;75.78;19.67;;;;;;;;;;5050639;28;20036;-40
2023/03/03 06:43:19;;;;;;;76.35;19.25;;;;;;;;;;5050709;28;20059;-41
2023/03/03 06:45:46;;;;;;;71.93;18.52;;;;;;;;;;5050716;28;20552;-42
2023/03/03 06:48:13;;;;;;;69.72;18.83;;;;;;;;;;5050715;28;20132;-42
2023/03/03 06:50:41;;;;;;;66.18;18.80;;;;;;;;;;5050746;28;20037;-42
2023/03/03 06:53:11;;;;;;;72.13;17.92;;;;;;;;;;5050507;28;20036;-42
2023/03/03 06:55:39;;;;;;;60.70;17.40;;;;;;;;;;5054201;28;20100;-42
2023/03/03 06:58:12;;;;;;;64.07;17.90;;;;;;;;;;5054763;28;20049;-42
2023/03/03 07:00:39;;;;;;;58.38;17.02;;;;;;;;;;5054668;28;20051;-42
2023/03/03 07:03:12;;;;;;;71.07;17.45;;;;;;;;;;5054621;28;20490;-42
2023/03/03 07:05:39;;;;;;;61.15;16.35;;;;;;;;;;5054554;28;20040;-42
2023/03/03 07:08:17;;;;;;;56.58;16.55;;;;;;;;;;5054585;28;20025;-42
2023/03/03 07:10:44;;;;;;;54.45;16.08;;;;;;;;;;5054487;28;20033;-42
2023/03/03 07:13:25;;;;;;;63.95;16.40;;;;;;;;;;5054440;28;20035;-42
2023/03/03 07:15:56;;;;;;;60.70;15.98;;;;;;;;;;5054537;28;20037;-40
2023/03/03 07:18:28;;;;;;;66.50;16.20;;;;;;;;;;5054232;28;20029;-41
2023/03/03 07:20:55;;;;;;;59.42;16.27;;;;;;;;;;5054140;28;20045;-41
2023/03/03 07:23:33;;;;;;;53.35;15.55;;;;;;;;;;5054151;28;20202;-40
2023/03/03 07:26:00;;;;;;;61.75;15.90;;;;;;;;;;5054168;28;20051;-41
2023/03/03 07:28:29;;;;;;;57.25;14.85;;;;;;;;;;5054288;28;20104;-41
2023/03/03 07:30:57;;;;;;;55.65;14.77;;;;;;;;;;5054105;28;20036;-40
2023/03/03 07:33:24;;;;;;;52.13;14.07;;;;;;;;;;5054100;28;20048;-40
2023/03/03 07:35:51;;;;;;;53.17;14.18;;;;;;;;;;5053862;28;20037;-40
2023/03/03 07:38:18;;;;;;;47.28;13.82;;;;;;;;;;5053926;28;20437;-41
2023/03/03 07:40:50;;;;;;;47.72;13.10;;;;;;;;;;5053922;28;20106;-40
2023/03/03 07:43:27;;;;;;;47.20;13.50;;;;;;;;;;5053721;28;20032;-40
2023/03/03 07:45:57;;;;;;;46.17;13.63;;;;;;;;;;5053759;28;20087;-40
2023/03/03 07:48:24;;;;;;;43.97;13.48;;;;;;;;;;5054005;28;20029;-40
2023/03/03 07:50:52;;;;;;;45.83;13.68;;;;;;;;;;5053792;28;20170;-40
2023/03/03 07:53:33;;;;;;;49.22;13.25;;;;;;;;;;5053675;28;20017;-40
2023/03/03 07:56:01;;;;;;;43.72;13.40;;;;;;;;;;5053551;28;20037;-41
2023/03/03 07:58:41;;;;;;;45.10;12.63;;;;;;;;;;5053604;28;20035;-42
2023/03/03 08:01:26;;;;;;;43.85;12.60;;;;;;;;;;5053520;28;20040;-40
2023/03/03 08:03:53;;;;;;;44.97;13.15;;;;;;;;;;5053488;28;20040;-41
2023/03/03 08:06:39;;;;;;;46.28;13.40;;;;;;;;;;5052543;28;20056;-40
2023/03/03 08:09:11;;;;;;;42.20;12.48;;;;;;;;;;5053349;28;20098;-41
2023/03/03 08:11:44;;;;;;;39.42;12.32;;;;;;;;;;5053247;28;20036;-40
2023/03/03 08:14:13;;;;;;;43.80;11.85;;;;;;;;;;5053238;28;20407;-41
2023/03/03 08:16:40;;;;;;;43.05;12.75;;;;;;;;;;5053314;28;20028;-40
2023/03/03 08:19:07;;;;;;;51.10;11.77;;;;;;;;;;5053153;28;20029;-42
2023/03/03 08:21:35;;;;;;;44.08;12.98;;;;;;;;;;5053125;28;20751;-40
2023/03/03 08:24:02;;;;;;;35.95;11.13;;;;;;;;;;5052874;28;20025;-41
2023/03/03 08:26:29;;;;;;;44.85;12.15;;;;;;;;;;5032796;28;20036;-42
2023/03/03 08:28:56;;;;;;;43.88;12.65;;;;;;;;;;5052483;28;20033;-40
2023/03/03 08:31:23;;;;;;;100.20;14.07;;;;;;;;;;5048739;28;20376;-39
2023/03/03 08:33:50;;;;;;;91.95;15.88;;;;;;;;;;5039015;28;20403;-41
2023/03/03 08:36:17;;;;;;;81.78;14.77;;;;;;;;;;5052705;28;20079;-40
2023/03/03 08:38:44;;;;;;;74.55;14.18;;;;;;;;;;5052705;28;20033;-39
2023/03/03 08:41:11;;;;;;;74.75;14.88;;;;;;;;;;5052447;28;20089;-41
2023/03/03 08:43:38;;;;;;;80.55;13.90;;;;;;;;;;5052525;28;20463;-41
2023/03/03 08:46:09;;;;;;;84.10;13.07;;;;;;;;;;5052662;28;20100;-41
2023/03/03 08:48:36;;;;;;;94.88;16.50;;;;;;;;;;5052715;28;20083;-41
2023/03/03 08:51:03;;;;;;;71.72;14.07;;;;;;;;;;5052401;28;20372;-41
2023/03/03 08:53:32;;;;;;;67.90;13.38;;;;;;;;;;5052163;28;20079;-40
2023/03/03 08:55:59;;;;;;;92.05;15.68;;;;;;;;;;5040629;28;20041;-40
2023/03/03 08:58:26;;;;;;;100.88;15.60;;;;;;;;;;5032020;28;20033;-41
2023/03/03 09:00:53;;;;;;;99.43;16.05;;;;;;;;;;5037539;28;20037;-39
2023/03/03 09:03:20;;;;;;;84.07;15.57;;;;;;;;;;5047973;28;20483;-39
2023/03/03 09:05:47;;;;;;;79.85;13.23;;;;;;;;;;5051551;28;20133;-39
2023/03/03 09:08:14;;;;;;;97.35;16.17;;;;;;;;;;5042219;28;20100;-39
2023/03/03 09:10:41;;;;;;;107.95;15.90;;;;;;;;;;5041423;28;20031;-39
2023/03/03 09:13:12;;;;;;;91.47;15.45;;;;;;;;;;5040894;28;20029;-42
2023/03/03 09:15:40;;;;;;;89.75;15.65;;;;;;;;;;5041346;28;20040;-41
2023/03/03 09:18:26;;;;;;;81.18;14.13;;;;;;;;;;5050622;28;20667;-39
2023/03/03 09:20:55;;;;;;;111.03;17.25;;;;;;;;;;5048752;28;20033;-41
2023/03/03 09:23:28;;;;;;;98.72;16.13;;;;;;;;;;5033297;28;20033;-39
2023/03/03 09:25:56;;;;;;;95.38;16.50;;;;;;;;;;5039399;28;20112;-40
2023/03/03 09:28:25;;;;;;;103.07;13.63;;;;;;;;;;5051854;28;20037;-40
2023/03/03 09:30:52;;;;;;;138.77;20.65;;;;;;;;;;5047047;28;20422;-40
2023/03/03 09:33:19;;;;;;;111.20;15.18;;;;;;;;;;5041719;28;20078;-41
2023/03/03 09:35:47;;;;;;;116.40;16.92;;;;;;;;;;5039486;28;20057;-41
2023/03/03 09:38:25;;;;;;;117.82;16.80;;;;;;;;;;5034618;28;20069;-40
2023/03/03 09:41:10;;;;;;;113.57;16.92;;;;;;;;;;5050944;28;20129;-43
2023/03/03 09:43:37;;;;;;;191.93;22.02;;;;;;;;;;5051583;28;20124;-41
2023/03/03 09:46:11;;;;;;;246.35;30.02;;;;;;;;;;5051530;28;20024;-41
2023/03/03 09:49:01;;;;;;;329.52;34.20;;;;;;;;;;5051491;28;20053;-41
2023/03/03 09:51:47;;;;;;;310.10;32.70;;;;;;;;;;5038773;28;20105;-41
2023/03/03 09:54:14;;;;;;;495.60;51.78;;;;;;;;;;5051395;28;20021;-41
2023/03/03 09:57:09;;;;;;;461.33;50.97;;;;;;;;;;5051371;28;20021;-41
2023/03/03 09:59:39;;;;;;;442.65;46.35;;;;;;;;;;5030405;28;20135;-41
2023/03/03 10:02:24;;;;;;;386.63;40.70;;;;;;;;;;5051141;28;20025;-41
2023/03/03 10:05:06;;;;;;;510.48;55.40;;;;;;;;;;5051294;28;20044;-43
2023/03/03 10:07:33;;;;;;;522.30;55.95;;;;;;;;;;5033215;28;20446;-41
2023/03/03 10:10:12;;;;;;;449.58;51.58;;;;;;;;;;5051249;28;20055;-42
2023/03/03 10:12:43;;;;;;;496.13;50.65;;;;;;;;;;5051100;28;20154;-41
2023/03/03 10:15:10;;;;;;;727.25;77.30;;;;;;;;;;5051094;28;20044;-41
2023/03/03 10:17:37;;;;;;;616.92;63.35;;;;;;;;;;5051080;28;20021;-41
2023/03/03 10:20:22;;;;;;;599.15;61.63;;;;;;;;;;5051097;28;20044;-41
2023/03/03 10:22:52;;;;;;;523.53;56.65;;;;;;;;;;5051062;28;20025;-41
2023/03/03 10:25:25;;;;;;;500.58;53.40;;;;;;;;;;5050786;28;20511;-41
2023/03/03 10:28:04;;;;;;;445.90;48.50;;;;;;;;;;5050873;28;20025;-41
2023/03/03 10:30:42;;;;;;;461.92;52.78;;;;;;;;;;5050338;28;20526;-41
2023/03/03 10:33:15;;;;;;;360.05;42.97;;;;;;;;;;5050804;28;20090;-41
2023/03/03 10:35:52;;;;;;;339.92;36.40;;;;;;;;;;5050877;28;20032;-41
2023/03/03 10:38:25;;;;;;;302.85;36.10;;;;;;;;;;5050878;28;20025;-41
2023/03/03 10:41:10;;;;;;;676.80;67.88;;;;;;;;;;5050342;28;20033;-42
2023/03/03 10:43:55;;;;;;;619.90;63.50;;;;;;;;;;5050657;28;20398;-40
2023/03/03 10:46:37;;;;;;;301.52;37.63;;;;;;;;;;5050770;28;20095;-40
2023/03/03 10:49:19;;;;;;;306.80;36.78;;;;;;;;;;5050556;28;20497;-40
2023/03/03 10:51:53;;;;;;;390.77;44.60;;;;;;;;;;5050714;28;20025;-40
2023/03/03 10:54:22;;;;;;;495.67;54.67;;;;;;;;;;5050734;28;20021;-40
2023/03/03 10:56:57;;;;;;;482.20;56.22;;;;;;;;;;5050674;28;20032;-40
2023/03/03 10:59:43;;;;;;;576.63;67.63;;;;;;;;;;5050598;28;20560;-40
2023/03/03 11:02:40;;;;;;;424.02;51.97;;;;;;;;;;5050467;28;20491;-40
2023/03/03 11:05:29;;;;;;;567.50;60.22;;;;;;;;;;4963131;28;20111;-40
2023/03/03 11:08:00;;;;;;;313.02;38.88;;;;;;;;;;5050305;28;20037;-41
2023/03/03 11:10:48;;;;;;;251.50;29.05;;;;;;;;;;5050055;28;20025;-40
2023/03/03 11:13:18;;;;;;;186.88;22.27;;;;;;;;;;5049660;28;20040;-46
2023/03/03 11:15:59;;;;;;;242.05;27.67;;;;;;;;;;5046061;28;20091;-41
2023/03/03 11:18:33;;;;;;;190.93;23.15;;;;;;;;;;5039151;28;20032;-43
2023/03/03 11:21:26;;;;;;;228.40;25.73;;;;;;;;;;5020540;28;20136;-35
2023/03/03 11:24:04;;;;;;;230.75;24.50;;;;;;;;;;4999331;28;20046;-35
2023/03/03 11:26:31;;;;;;;318.55;28.83;;;;;;;;;;5030096;28;20060;-35
2023/03/03 11:29:07;;;;;;;516.78;44.45;;;;;;;;;;5030123;28;20033;-35
2023/03/03 11:31:44;;;;;;;380.48;34.95;;;;;;;;;;5029956;28;20107;-35
2023/03/03 11:34:29;;;;;;;324.70;30.38;;;;;;;;;;5030009;28;20057;-35
2023/03/03 11:37:01;;;;;;;386.05;38.22;;;;;;;;;;5030074;28;20040;-37
2023/03/03 11:39:28;;;;;;;323.88;33.00;;;;;;;;;;5030703;28;20062;-36
2023/03/03 11:42:11;;;;;;;429.85;40.50;;;;;;;;;;5032053;28;20059;-35
2023/03/03 11:44:41;;;;;;;422.02;43.45;;;;;;;;;;5033503;28;20025;-37
2023/03/03 11:47:18;;;;;;;530.67;53.78;;;;;;;;;;5033554;28;20096;-36
2023/03/03 11:50:04;;;;;;;484.98;45.97;;;;;;;;;;5033459;28;20017;-36
2023/03/03 11:52:52;;;;;;;323.38;36.13;;;;;;;;;;5033216;28;20021;-36
2023/03/03 11:55:21;;;;;;;310.85;34.08;;;;;;;;;;5033252;28;20025;-36
2023/03/03 11:57:48;;;;;;;376.33;37.65;;;;;;;;;;5033262;28;20472;-36
2023/03/03 12:00:31;;;;;;;246.73;29.02;;;;;;;;;;5033126;28;20029;-36
2023/03/03 12:03:16;;;;;;;272.50;30.35;;;;;;;;;;5033050;28;20029;-36
2023/03/03 12:05:48;;;;;;;247.90;29.30;;;;;;;;;;5033359;28;20029;-36
2023/03/03 12:08:33;;;;;;;246.48;27.42;;;;;;;;;;5015249;28;20391;-36
2023/03/03 12:11:03;;;;;;;228.80;26.25;;;;;;;;;;5033037;28;20053;-36
2023/03/03 12:13:47;;;;;;;172.70;22.23;;;;;;;;;;5033320;28;20025;-36
2023/03/03 12:16:29;;;;;;;176.43;20.73;;;;;;;;;;5032929;28;20076;-36
2023/03/03 12:19:19;;;;;;;153.90;19.05;;;;;;;;;;5033057;28;20037;-36
2023/03/03 12:21:59;;;;;;;139.57;16.95;;;;;;;;;;5020664;28;20045;-36
2023/03/03 12:24:44;;;;;;;118.60;15.20;;;;;;;;;;5032733;28;20064;-36
2023/03/03 12:27:15;;;;;;;100.93;13.93;;;;;;;;;;5033015;28;20067;-36
2023/03/03 12:30:06;;;;;;;93.38;11.35;;;;;;;;;;5032216;28;20143;-36
2023/03/03 12:32:51;;;;;;;69.47;10.75;;;;;;;;;;4998974;28;20041;-36
2023/03/03 12:35:29;;;;;;;70.85;9.25;;;;;;;;;;5042494;28;20022;-36
2023/03/03 12:38:02;;;;;;;67.10;8.73;;;;;;;;;;5042162;28;20026;-36
2023/03/03 12:40:34;;;;;;;72.70;8.73;;;;;;;;;;5027686;28;20036;-36
2023/03/03 12:43:04;;;;;;;68.67;8.43;;;;;;;;;;5052539;28;20079;-36
2023/03/03 12:45:40;;;;;;;54.42;6.53;;;;;;;;;;5052315;28;20346;-36
2023/03/03 12:48:28;;;;;;;49.15;6.78;;;;;;;;;;5052436;28;20090;-36
2023/03/03 12:51:00;;;;;;;45.60;6.03;;;;;;;;;;5052083;28;20032;-36
2023/03/03 12:53:47;;;;;;;55.50;6.30;;;;;;;;;;5051924;28;20096;-36
2023/03/03 12:56:19;;;;;;;60.60;6.75;;;;;;;;;;5052276;28;20028;-37
2023/03/03 12:58:46;;;;;;;44.95;5.40;;;;;;;;;;5052275;28;20032;-36
2023/03/03 13:01:13;;;;;;;37.60;5.35;;;;;;;;;;5052089;28;20033;-37
2023/03/03 13:03:56;;;;;;;44.85;5.53;;;;;;;;;;5034256;28;20025;-38
2023/03/03 13:06:26;;;;;;;48.25;5.32;;;;;;;;;;5052129;28;20426;-38
2023/03/03 13:09:16;;;;;;;50.40;5.45;;;;;;;;;;5052156;28;20082;-36
2023/03/03 13:12:05;;;;;;;59.40;5.50;;;;;;;;;;5052038;28;20060;-36
2023/03/03 13:14:32;;;;;;;58.67;5.80;;;;;;;;;;5051828;28;20071;-36
2023/03/03 13:17:18;;;;;;;90.00;8.15;;;;;;;;;;5051839;28;20055;-37
2023/03/03 13:19:52;;;;;;;55.75;7.30;;;;;;;;;;5051782;28;20036;-37
2023/03/03 13:22:28;;;;;;;60.25;6.38;;;;;;;;;;5051867;28;20025;-36
2023/03/03 13:25:00;;;;;;;76.25;7.38;;;;;;;;;;5051528;28;20127;-36
2023/03/03 13:27:31;;;;;;;64.65;6.93;;;;;;;;;;5051756;28;20025;-38
2023/03/03 13:30:04;;;;;;;52.97;6.28;;;;;;;;;;5051845;28;20059;-36
2023/03/03 13:32:46;;;;;;;75.45;7.18;;;;;;;;;;5051743;28;20079;-36
2023/03/03 13:35:31;;;;;;;54.00;8.05;;;;;;;;;;5051556;28;20028;-37
2023/03/03 13:37:59;;;;;;;65.43;6.65;;;;;;;;;;5033506;28;20386;-36
2023/03/03 13:40:28;;;;;;;84.55;7.10;;;;;;;;;;5051120;28;20025;-37
2023/03/03 13:43:08;;;;;;;61.53;5.60;;;;;;;;;;5051321;28;20113;-37
2023/03/03 13:45:56;;;;;;;57.33;5.95;;;;;;;;;;5051323;28;20027;-36
2023/03/03 13:48:44;;;;;;;49.47;4.97;;;;;;;;;;5051172;28;20059;-37
2023/03/03 13:51:29;;;;;;;52.60;5.13;;;;;;;;;;5051100;28;20024;-38
2023/03/03 13:53:56;;;;;;;44.65;5.97;;;;;;;;;;5051218;28;20029;-37
2023/03/03 13:56:55;;;;;;;39.78;4.53;;;;;;;;;;5051245;28;20082;-36
2023/03/03 13:59:22;;;;;;;38.45;4.88;;;;;;;;;;4996792;28;20033;-38
2023/03/03 14:01:56;;;;;;;32.05;4.32;;;;;;;;;;5040184;28;20025;-35
2023/03/03 14:04:34;;;;;;;29.23;4.00;;;;;;;;;;5014628;28;20036;-36
2023/03/03 14:07:07;;;;;;;35.47;4.38;;;;;;;;;;5050812;28;20032;-36
2023/03/03 14:09:52;;;;;;;31.75;4.47;;;;;;;;;;5050686;28;20494;-37
2023/03/03 14:12:39;;;;;;;27.95;4.72;;;;;;;;;;5036871;28;20480;-35
2023/03/03 14:15:26;;;;;;;23.80;4.43;;;;;;;;;;5000328;28;20037;-36
2023/03/03 14:17:59;;;;;;;23.38;4.00;;;;;;;;;;5038485;28;20055;-36
2023/03/03 14:20:38;;;;;;;34.42;4.75;;;;;;;;;;5050486;28;20112;-35
2023/03/03 14:23:10;;;;;;;24.23;3.75;;;;;;;;;;5050340;28;20047;-36
2023/03/03 14:25:54;;;;;;;23.35;4.03;;;;;;;;;;5050175;28;20123;-35
2023/03/03 14:28:23;;;;;;;23.88;3.67;;;;;;;;;;5050562;28;20104;-35
2023/03/03 14:30:52;;;;;;;29.83;4.15;;;;;;;;;;5050279;28;20031;-36
2023/03/03 14:33:21;;;;;;;22.23;3.30;;;;;;;;;;5050349;28;20028;-36
2023/03/03 14:36:00;;;;;;;25.95;3.50;;;;;;;;;;5050261;28;20078;-36
2023/03/03 14:38:33;;;;;;;23.20;4.38;;;;;;;;;;5050062;28;20814;-35